sensor_id;sensor_type;location;lat;lon;timestamp;pressure;altitude;pressure_sealevel;temperature;humidity
39223;BME280;24936;46.328;11.026;2023-04-30T00:00:22;94268.91;;;8.48;90.04
39223;BME280;24936;46.328;11.026;2023-04-30T00:02:47;94264.28;;;8.40;90.64
39223;BME280;24936;46.328;11.026;2023-04-30T00:05:13;94264.94;;;8.32;90.83
39223;BME280;24936;46.328;11.026;2023-04-30T00:07:38;94266.72;;;8.32;90.92
39223;BME280;24936;46.328;11.026;2023-04-30T00:10:10;94265.78;;;8.42;90.38
39223;BME280;24936;46.328;11.026;2023-04-30T00:12:36;94270.47;;;8.39;90.19
39223;BME280;24936;46.328;11.026;2023-04-30T00:15:02;94268.25;;;8.34;90.49
39223;BME280;24936;46.328;11.026;2023-04-30T00:17:28;94263.81;;;8.35;90.81
39223;BME280;24936;46.328;11.026;2023-04-30T00:19:54;94267.97;;;8.37;90.84
39223;BME280;24936;46.328;11.026;2023-04-30T00:22:19;94261.84;;;8.27;91.23
39223;BME280;24936;46.328;11.026;2023-04-30T00:24:45;94273.84;;;8.20;91.84
39223;BME280;24936;46.328;11.026;2023-04-30T00:27:10;94275.13;;;8.25;91.78
39223;BME280;24936;46.328;11.026;2023-04-30T00:29:36;94268.50;;;8.52;90.67
39223;BME280;24936;46.328;11.026;2023-04-30T00:32:02;94263.16;;;8.64;90.09
39223;BME280;24936;46.328;11.026;2023-04-30T00:34:27;94269.56;;;8.50;90.88
39223;BME280;24936;46.328;11.026;2023-04-30T00:36:53;94274.47;;;8.33;91.39
39223;BME280;24936;46.328;11.026;2023-04-30T00:39:18;94268.91;;;8.26;91.69
39223;BME280;24936;46.328;11.026;2023-04-30T00:41:44;94267.53;;;8.53;89.97
39223;BME280;24936;46.328;11.026;2023-04-30T00:44:10;94261.88;;;8.58;89.68
39223;BME280;24936;46.328;11.026;2023-04-30T00:46:35;94257.78;;;8.44;89.93
39223;BME280;24936;46.328;11.026;2023-04-30T00:49:01;94266.16;;;8.28;90.35
39223;BME280;24936;46.328;11.026;2023-04-30T00:51:30;94263.34;;;8.20;90.76
39223;BME280;24936;46.328;11.026;2023-04-30T00:53:57;94255.09;;;8.24;91.14
39223;BME280;24936;46.328;11.026;2023-04-30T00:56:24;94256.16;;;8.22;91.30
39223;BME280;24936;46.328;11.026;2023-04-30T00:58:51;94256.28;;;8.72;88.36
39223;BME280;24936;46.328;11.026;2023-04-30T01:01:24;94257.75;;;8.55;89.19
39223;BME280;24936;46.328;11.026;2023-04-30T01:03:51;94246.09;;;8.48;89.21
39223;BME280;24936;46.328;11.026;2023-04-30T01:06:16;94250.53;;;8.48;89.50
39223;BME280;24936;46.328;11.026;2023-04-30T01:08:42;94253.59;;;8.32;90.06
39223;BME280;24936;46.328;11.026;2023-04-30T01:11:20;94249.50;;;8.39;89.78
39223;BME280;24936;46.328;11.026;2023-04-30T01:16:30;94253.63;;;8.63;89.12
39223;BME280;24936;46.328;11.026;2023-04-30T01:21:52;94254.16;;;8.56;89.51
39223;BME280;24936;46.328;11.026;2023-04-30T01:30:02;94258.16;;;8.61;89.46
39223;BME280;24936;46.328;11.026;2023-04-30T01:32:29;94255.53;;;8.61;89.71
39223;BME280;24936;46.328;11.026;2023-04-30T01:34:54;94266.28;;;8.57;89.49
39223;BME280;24936;46.328;11.026;2023-04-30T01:38:06;94260.22;;;8.57;89.76
39223;BME280;24936;46.328;11.026;2023-04-30T01:40:35;94264.09;;;8.63;89.98
39223;BME280;24936;46.328;11.026;2023-04-30T01:43:16;94257.53;;;8.78;89.77
39223;BME280;24936;46.328;11.026;2023-04-30T01:45:53;94252.53;;;8.75;89.64
39223;BME280;24936;46.328;11.026;2023-04-30T01:51:40;94256.16;;;8.84;88.15
39223;BME280;24936;46.328;11.026;2023-04-30T01:54:42;94266.41;;;8.87;88.06
39223;BME280;24936;46.328;11.026;2023-04-30T01:57:44;94262.25;;;8.84;87.88
39223;BME280;24936;46.328;11.026;2023-04-30T02:00:13;94270.50;;;8.80;88.25
39223;BME280;24936;46.328;11.026;2023-04-30T02:02:39;94268.19;;;8.77;88.44
39223;BME280;24936;46.328;11.026;2023-04-30T02:05:04;94268.47;;;8.83;88.67
39223;BME280;24936;46.328;11.026;2023-04-30T02:07:50;94270.53;;;8.90;88.16
39223;BME280;24936;46.328;11.026;2023-04-30T02:10:19;94271.09;;;8.83;88.79
39223;BME280;24936;46.328;11.026;2023-04-30T02:12:45;94268.06;;;8.88;88.62
39223;BME280;24936;46.328;11.026;2023-04-30T02:15:11;94267.94;;;8.99;88.64
39223;BME280;24936;46.328;11.026;2023-04-30T02:17:36;94268.38;;;9.05;88.91
39223;BME280;24936;46.328;11.026;2023-04-30T02:20:02;94279.53;;;8.87;89.27
39223;BME280;24936;46.328;11.026;2023-04-30T02:22:28;94272.63;;;8.86;89.35
39223;BME280;24936;46.328;11.026;2023-04-30T02:24:54;94266.13;;;8.90;89.48
39223;BME280;24936;46.328;11.026;2023-04-30T02:27:21;94263.81;;;8.97;88.96
39223;BME280;24936;46.328;11.026;2023-04-30T02:29:47;94264.47;;;8.99;88.93
39223;BME280;24936;46.328;11.026;2023-04-30T02:32:13;94263.22;;;8.83;89.57
39223;BME280;24936;46.328;11.026;2023-04-30T02:34:39;94275.19;;;8.76;90.50
39223;BME280;24936;46.328;11.026;2023-04-30T02:37:05;94273.84;;;8.82;91.07
39223;BME280;24936;46.328;11.026;2023-04-30T02:39:31;94275.75;;;8.80;91.00
39223;BME280;24936;46.328;11.026;2023-04-30T02:41:56;94271.75;;;8.85;90.13
39223;BME280;24936;46.328;11.026;2023-04-30T02:44:22;94276.56;;;8.70;90.94
39223;BME280;24936;46.328;11.026;2023-04-30T02:46:47;94277.81;;;8.45;91.80
39223;BME280;24936;46.328;11.026;2023-04-30T02:49:25;94278.03;;;8.32;92.77
39223;BME280;24936;46.328;11.026;2023-04-30T02:51:51;94283.03;;;8.35;93.35
39223;BME280;24936;46.328;11.026;2023-04-30T02:54:17;94281.91;;;8.59;93.23
39223;BME280;24936;46.328;11.026;2023-04-30T02:56:44;94291.25;;;8.31;93.32
39223;BME280;24936;46.328;11.026;2023-04-30T02:59:09;94279.97;;;8.30;93.79
39223;BME280;24936;46.328;11.026;2023-04-30T03:01:35;94279.13;;;8.30;93.96
39223;BME280;24936;46.328;11.026;2023-04-30T03:04:01;94274.97;;;8.27;93.94
39223;BME280;24936;46.328;11.026;2023-04-30T03:06:30;94278.50;;;8.16;94.10
39223;BME280;24936;46.328;11.026;2023-04-30T03:08:56;94270.47;;;8.08;94.49
39223;BME280;24936;46.328;11.026;2023-04-30T03:11:22;94273.69;;;8.21;93.51
39223;BME280;24936;46.328;11.026;2023-04-30T03:13:47;94271.59;;;8.15;93.51
39223;BME280;24936;46.328;11.026;2023-04-30T03:16:17;94273.94;;;8.18;93.74
39223;BME280;24936;46.328;11.026;2023-04-30T03:18:47;94268.34;;;8.02;93.55
39223;BME280;24936;46.328;11.026;2023-04-30T03:21:13;94265.72;;;8.02;93.68
39223;BME280;24936;46.328;11.026;2023-04-30T03:23:39;94270.63;;;7.74;94.33
39223;BME280;24936;46.328;11.026;2023-04-30T03:26:04;94274.25;;;7.73;94.25
39223;BME280;24936;46.328;11.026;2023-04-30T03:28:30;94270.69;;;7.62;94.60
39223;BME280;24936;46.328;11.026;2023-04-30T03:30:56;94279.16;;;7.66;94.74
39223;BME280;24936;46.328;11.026;2023-04-30T03:33:21;94269.31;;;7.58;95.25
39223;BME280;24936;46.328;11.026;2023-04-30T03:35:47;94266.06;;;7.33;95.02
39223;BME280;24936;46.328;11.026;2023-04-30T03:38:14;94265.34;;;7.10;95.72
39223;BME280;24936;46.328;11.026;2023-04-30T03:40:39;94266.38;;;7.08;96.06
39223;BME280;24936;46.328;11.026;2023-04-30T03:43:05;94268.28;;;7.06;96.26
39223;BME280;24936;46.328;11.026;2023-04-30T03:45:30;94269.97;;;7.07;96.43
39223;BME280;24936;46.328;11.026;2023-04-30T03:47:56;94269.78;;;6.87;96.00
39223;BME280;24936;46.328;11.026;2023-04-30T03:50:21;94264.91;;;6.82;96.21
39223;BME280;24936;46.328;11.026;2023-04-30T03:52:47;94267.66;;;6.69;96.40
39223;BME280;24936;46.328;11.026;2023-04-30T03:55:12;94262.81;;;6.65;96.84
39223;BME280;24936;46.328;11.026;2023-04-30T03:57:38;94268.63;;;6.57;96.35
39223;BME280;24936;46.328;11.026;2023-04-30T04:00:07;94272.19;;;6.67;96.99
39223;BME280;24936;46.328;11.026;2023-04-30T04:02:34;94271.56;;;6.75;97.02
39223;BME280;24936;46.328;11.026;2023-04-30T04:05:00;94272.16;;;6.79;97.00
39223;BME280;24936;46.328;11.026;2023-04-30T04:07:26;94270.03;;;6.84;97.03
39223;BME280;24936;46.328;11.026;2023-04-30T04:09:51;94265.38;;;6.76;96.79
39223;BME280;24936;46.328;11.026;2023-04-30T04:12:17;94258.97;;;6.69;96.65
39223;BME280;24936;46.328;11.026;2023-04-30T04:14:42;94267.03;;;6.88;96.71
39223;BME280;24936;46.328;11.026;2023-04-30T04:17:08;94267.44;;;6.72;96.39
39223;BME280;24936;46.328;11.026;2023-04-30T04:19:33;94271.44;;;6.77;96.12
39223;BME280;24936;46.328;11.026;2023-04-30T04:21:59;94271.00;;;6.71;96.51
39223;BME280;24936;46.328;11.026;2023-04-30T04:24:25;94271.47;;;6.65;96.41
39223;BME280;24936;46.328;11.026;2023-04-30T04:26:51;94281.56;;;6.58;96.47
39223;BME280;24936;46.328;11.026;2023-04-30T04:29:17;94285.38;;;6.66;96.55
39223;BME280;24936;46.328;11.026;2023-04-30T04:31:43;94285.84;;;6.71;96.52
39223;BME280;24936;46.328;11.026;2023-04-30T04:34:08;94283.25;;;6.60;96.29
39223;BME280;24936;46.328;11.026;2023-04-30T04:36:34;94295.84;;;6.77;96.49
39223;BME280;24936;46.328;11.026;2023-04-30T04:39:00;94298.47;;;6.66;96.32
39223;BME280;24936;46.328;11.026;2023-04-30T04:41:29;94301.06;;;6.77;96.67
39223;BME280;24936;46.328;11.026;2023-04-30T04:43:55;94299.63;;;6.84;96.17
39223;BME280;24936;46.328;11.026;2023-04-30T04:46:21;94301.88;;;6.78;96.03
39223;BME280;24936;46.328;11.026;2023-04-30T04:48:47;94310.09;;;6.73;96.08
39223;BME280;24936;46.328;11.026;2023-04-30T04:51:13;94306.53;;;6.63;95.85
39223;BME280;24936;46.328;11.026;2023-04-30T04:53:38;94305.81;;;6.61;96.26
39223;BME280;24936;46.328;11.026;2023-04-30T04:56:04;94315.69;;;6.57;96.58
39223;BME280;24936;46.328;11.026;2023-04-30T04:58:30;94313.28;;;6.77;96.55
39223;BME280;24936;46.328;11.026;2023-04-30T05:00:55;94313.19;;;6.89;96.19
39223;BME280;24936;46.328;11.026;2023-04-30T05:03:21;94312.53;;;7.09;95.51
39223;BME280;24936;46.328;11.026;2023-04-30T05:05:47;94306.94;;;7.13;95.42
39223;BME280;24936;46.328;11.026;2023-04-30T05:08:12;94310.50;;;7.12;95.20
39223;BME280;24936;46.328;11.026;2023-04-30T05:10:38;94312.13;;;7.25;95.55
39223;BME280;24936;46.328;11.026;2023-04-30T05:13:03;94316.75;;;7.44;95.13
39223;BME280;24936;46.328;11.026;2023-04-30T05:15:29;94326.09;;;7.58;94.99
39223;BME280;24936;46.328;11.026;2023-04-30T05:17:55;94328.25;;;7.53;95.08
39223;BME280;24936;46.328;11.026;2023-04-30T05:20:20;94318.38;;;7.56;95.26
39223;BME280;24936;46.328;11.026;2023-04-30T05:22:46;94328.09;;;7.65;94.98
39223;BME280;24936;46.328;11.026;2023-04-30T05:25:11;94326.50;;;7.74;94.60
39223;BME280;24936;46.328;11.026;2023-04-30T05:27:37;94322.88;;;7.87;94.02
39223;BME280;24936;46.328;11.026;2023-04-30T05:30:02;94329.59;;;8.01;93.49
39223;BME280;24936;46.328;11.026;2023-04-30T05:32:28;94323.34;;;8.13;92.79
39223;BME280;24936;46.328;11.026;2023-04-30T05:34:54;94321.06;;;8.30;92.09
39223;BME280;24936;46.328;11.026;2023-04-30T05:37:20;94318.81;;;8.46;91.31
39223;BME280;24936;46.328;11.026;2023-04-30T05:39:47;94320.31;;;8.60;90.40
39223;BME280;24936;46.328;11.026;2023-04-30T05:42:12;94325.59;;;8.70;89.71
39223;BME280;24936;46.328;11.026;2023-04-30T05:44:39;94325.47;;;8.71;89.73
39223;BME280;24936;46.328;11.026;2023-04-30T05:47:05;94322.97;;;8.70;90.18
39223;BME280;24936;46.328;11.026;2023-04-30T05:49:30;94320.00;;;8.84;89.65
39223;BME280;24936;46.328;11.026;2023-04-30T05:51:56;94320.75;;;9.06;88.57
39223;BME280;24936;46.328;11.026;2023-04-30T05:54:21;94322.84;;;9.22;88.88
39223;BME280;24936;46.328;11.026;2023-04-30T05:56:47;94330.91;;;9.30;88.15
39223;BME280;24936;46.328;11.026;2023-04-30T05:59:12;94329.81;;;9.43;87.61
39223;BME280;24936;46.328;11.026;2023-04-30T06:01:38;94328.16;;;9.61;87.47
39223;BME280;24936;46.328;11.026;2023-04-30T06:04:03;94331.50;;;9.83;85.99
39223;BME280;24936;46.328;11.026;2023-04-30T06:06:29;94320.13;;;9.92;85.48
39223;BME280;24936;46.328;11.026;2023-04-30T06:08:56;94324.84;;;9.89;84.18
39223;BME280;24936;46.328;11.026;2023-04-30T06:11:22;94316.53;;;10.03;83.40
39223;BME280;24936;46.328;11.026;2023-04-30T06:13:50;94319.59;;;9.99;82.88
39223;BME280;24936;46.328;11.026;2023-04-30T06:16:15;94316.53;;;10.03;82.91
39223;BME280;24936;46.328;11.026;2023-04-30T06:18:41;94327.31;;;10.10;82.67
39223;BME280;24936;46.328;11.026;2023-04-30T06:21:06;94325.13;;;10.15;82.44
39223;BME280;24936;46.328;11.026;2023-04-30T06:23:32;94320.66;;;10.16;82.61
39223;BME280;24936;46.328;11.026;2023-04-30T06:25:58;94323.41;;;10.24;82.26
39223;BME280;24936;46.328;11.026;2023-04-30T06:28:23;94321.75;;;10.33;83.40
39223;BME280;24936;46.328;11.026;2023-04-30T06:30:50;94326.31;;;10.40;83.95
39223;BME280;24936;46.328;11.026;2023-04-30T06:33:17;94321.47;;;10.46;82.71
39223;BME280;24936;46.328;11.026;2023-04-30T06:35:43;94316.72;;;10.59;82.33
39223;BME280;24936;46.328;11.026;2023-04-30T06:38:08;94327.34;;;10.67;82.03
39223;BME280;24936;46.328;11.026;2023-04-30T06:40:34;94324.94;;;10.84;81.85
39223;BME280;24936;46.328;11.026;2023-04-30T06:43:03;94319.59;;;11.04;81.08
39223;BME280;24936;46.328;11.026;2023-04-30T06:45:28;94313.16;;;11.16;81.12
39223;BME280;24936;46.328;11.026;2023-04-30T06:47:54;94314.78;;;11.45;80.93
39223;BME280;24936;46.328;11.026;2023-04-30T06:50:20;94313.38;;;11.69;80.68
39223;BME280;24936;46.328;11.026;2023-04-30T06:52:48;94314.50;;;11.84;80.52
39223;BME280;24936;46.328;11.026;2023-04-30T06:55:13;94310.91;;;11.85;80.54
39223;BME280;24936;46.328;11.026;2023-04-30T06:57:39;94321.13;;;11.70;80.10
39223;BME280;24936;46.328;11.026;2023-04-30T07:00:05;94320.56;;;11.30;80.86
39223;BME280;24936;46.328;11.026;2023-04-30T07:02:31;94319.13;;;11.18;81.53
39223;BME280;24936;46.328;11.026;2023-04-30T07:04:57;94313.44;;;11.13;81.28
39223;BME280;24936;46.328;11.026;2023-04-30T07:07:23;94317.31;;;11.19;81.02
39223;BME280;24936;46.328;11.026;2023-04-30T07:09:48;94321.59;;;11.20;81.19
39223;BME280;24936;46.328;11.026;2023-04-30T07:12:15;94321.47;;;11.21;80.49
39223;BME280;24936;46.328;11.026;2023-04-30T07:14:40;94327.03;;;11.18;80.62
39223;BME280;24936;46.328;11.026;2023-04-30T07:17:06;94319.47;;;11.23;80.97
39223;BME280;24936;46.328;11.026;2023-04-30T07:19:32;94326.22;;;11.36;81.49
39223;BME280;24936;46.328;11.026;2023-04-30T07:21:57;94327.19;;;11.62;80.04
39223;BME280;24936;46.328;11.026;2023-04-30T07:24:23;94321.22;;;11.97;79.39
39223;BME280;24936;46.328;11.026;2023-04-30T07:26:49;94313.44;;;12.31;76.85
39223;BME280;24936;46.328;11.026;2023-04-30T07:29:14;94320.06;;;12.62;75.90
39223;BME280;24936;46.328;11.026;2023-04-30T07:31:39;94316.72;;;12.86;74.87
39223;BME280;24936;46.328;11.026;2023-04-30T07:34:05;94317.00;;;12.75;72.56
39223;BME280;24936;46.328;11.026;2023-04-30T07:36:30;94315.53;;;13.15;73.85
39223;BME280;24936;46.328;11.026;2023-04-30T07:38:56;94319.91;;;13.33;72.77
39223;BME280;24936;46.328;11.026;2023-04-30T07:41:23;94316.84;;;13.62;70.33
39223;BME280;24936;46.328;11.026;2023-04-30T07:43:49;94318.22;;;13.83;70.49
39223;BME280;24936;46.328;11.026;2023-04-30T07:46:15;94315.09;;;13.87;70.01
39223;BME280;24936;46.328;11.026;2023-04-30T07:48:40;94316.41;;;14.08;71.58
39223;BME280;24936;46.328;11.026;2023-04-30T07:51:06;94319.22;;;13.90;68.61
39223;BME280;24936;46.328;11.026;2023-04-30T07:53:31;94310.44;;;13.65;70.12
39223;BME280;24936;46.328;11.026;2023-04-30T07:55:57;94319.47;;;13.45;71.12
39223;BME280;24936;46.328;11.026;2023-04-30T07:58:22;94309.88;;;13.44;71.76
39223;BME280;24936;46.328;11.026;2023-04-30T08:00:48;94313.94;;;13.39;71.82
39223;BME280;24936;46.328;11.026;2023-04-30T08:03:13;94308.56;;;13.40;72.75
39223;BME280;24936;46.328;11.026;2023-04-30T08:05:39;94313.16;;;13.38;73.20
39223;BME280;24936;46.328;11.026;2023-04-30T08:08:05;94311.66;;;13.36;73.21
39223;BME280;24936;46.328;11.026;2023-04-30T08:10:31;94316.78;;;13.37;74.13
39223;BME280;24936;46.328;11.026;2023-04-30T08:12:56;94308.25;;;13.60;73.08
39223;BME280;24936;46.328;11.026;2023-04-30T08:15:22;94307.44;;;13.59;72.44
39223;BME280;24936;46.328;11.026;2023-04-30T08:17:48;94308.94;;;13.62;73.52
39223;BME280;24936;46.328;11.026;2023-04-30T08:20:14;94306.63;;;13.67;73.85
39223;BME280;24936;46.328;11.026;2023-04-30T08:22:40;94310.97;;;13.85;73.48
39223;BME280;24936;46.328;11.026;2023-04-30T08:25:05;94305.50;;;13.78;73.00
39223;BME280;24936;46.328;11.026;2023-04-30T08:27:31;94310.78;;;13.78;73.28
39223;BME280;24936;46.328;11.026;2023-04-30T08:29:57;94301.69;;;13.89;73.50
39223;BME280;24936;46.328;11.026;2023-04-30T08:32:22;94301.03;;;14.20;72.88
39223;BME280;24936;46.328;11.026;2023-04-30T08:34:48;94307.66;;;14.24;72.18
39223;BME280;24936;46.328;11.026;2023-04-30T08:37:13;94305.47;;;14.61;70.93
39223;BME280;24936;46.328;11.026;2023-04-30T08:39:40;94317.22;;;14.75;70.37
39223;BME280;24936;46.328;11.026;2023-04-30T08:42:07;94313.88;;;14.89;69.44
39223;BME280;24936;46.328;11.026;2023-04-30T08:44:33;94309.56;;;14.96;69.79
39223;BME280;24936;46.328;11.026;2023-04-30T08:47:04;94311.84;;;15.08;68.59
39223;BME280;24936;46.328;11.026;2023-04-30T08:49:31;94310.94;;;15.24;67.90
39223;BME280;24936;46.328;11.026;2023-04-30T08:51:57;94312.72;;;15.32;65.76
39223;BME280;24936;46.328;11.026;2023-04-30T08:54:27;94307.28;;;15.56;66.11
39223;BME280;24936;46.328;11.026;2023-04-30T08:56:55;94308.06;;;15.97;64.73
39223;BME280;24936;46.328;11.026;2023-04-30T08:59:21;94310.34;;;16.46;64.50
39223;BME280;24936;46.328;11.026;2023-04-30T09:01:46;94303.81;;;17.32;62.46
39223;BME280;24936;46.328;11.026;2023-04-30T09:04:12;94308.75;;;17.50;60.25
39223;BME280;24936;46.328;11.026;2023-04-30T09:06:37;94297.25;;;19.08;53.90
39223;BME280;24936;46.328;11.026;2023-04-30T09:09:11;94296.69;;;20.71;51.99
39223;BME280;24936;46.328;11.026;2023-04-30T09:11:37;94297.34;;;22.04;50.03
39223;BME280;24936;46.328;11.026;2023-04-30T09:14:03;94295.34;;;22.57;49.31
39223;BME280;24936;46.328;11.026;2023-04-30T09:16:30;94291.59;;;22.00;49.47
39223;BME280;24936;46.328;11.026;2023-04-30T09:19:09;94290.22;;;21.32;45.70
39223;BME280;24936;46.328;11.026;2023-04-30T09:21:35;94290.22;;;22.81;44.93
39223;BME280;24936;46.328;11.026;2023-04-30T09:24:05;94285.56;;;22.69;42.96
39223;BME280;24936;46.328;11.026;2023-04-30T09:26:36;94280.91;;;24.25;41.73
39223;BME280;24936;46.328;11.026;2023-04-30T09:29:02;94279.34;;;23.57;43.47
39223;BME280;24936;46.328;11.026;2023-04-30T09:31:36;94276.66;;;23.87;40.43
39223;BME280;24936;46.328;11.026;2023-04-30T09:34:02;94269.69;;;24.71;43.25
39223;BME280;24936;46.328;11.026;2023-04-30T09:36:28;94262.59;;;25.00;38.84
39223;BME280;24936;46.328;11.026;2023-04-30T09:38:54;94263.91;;;24.01;40.06
39223;BME280;24936;46.328;11.026;2023-04-30T09:41:25;94262.25;;;22.70;42.85
39223;BME280;24936;46.328;11.026;2023-04-30T09:43:59;94265.47;;;22.28;47.95
39223;BME280;24936;46.328;11.026;2023-04-30T09:46:34;94256.72;;;23.95;40.72
39223;BME280;24936;46.328;11.026;2023-04-30T09:49:05;94258.19;;;24.52;38.79
39223;BME280;24936;46.328;11.026;2023-04-30T09:51:31;94250.41;;;24.98;37.22
39223;BME280;24936;46.328;11.026;2023-04-30T09:53:57;94247.34;;;26.00;39.40
39223;BME280;24936;46.328;11.026;2023-04-30T09:56:24;94249.22;;;24.94;39.78
39223;BME280;24936;46.328;11.026;2023-04-30T09:58:55;94243.22;;;24.68;38.82
39223;BME280;24936;46.328;11.026;2023-04-30T10:01:21;94243.84;;;23.36;39.02
39223;BME280;24936;46.328;11.026;2023-04-30T10:03:47;94235.84;;;22.48;41.65
39223;BME280;24936;46.328;11.026;2023-04-30T10:06:14;94242.47;;;23.08;43.87
39223;BME280;24936;46.328;11.026;2023-04-30T10:08:42;94235.47;;;21.80;43.42
39223;BME280;24936;46.328;11.026;2023-04-30T10:11:12;94234.00;;;20.26;46.78
39223;BME280;24936;46.328;11.026;2023-04-30T10:13:56;94232.31;;;20.59;49.43
39223;BME280;24936;46.328;11.026;2023-04-30T10:19:13;94223.44;;;21.90;43.64
39223;BME280;24936;46.328;11.026;2023-04-30T10:21:44;94215.75;;;23.69;42.74
39223;BME280;24936;46.328;11.026;2023-04-30T10:24:13;94214.59;;;24.73;40.61
39223;BME280;24936;46.328;11.026;2023-04-30T10:26:40;94207.28;;;26.03;37.02
39223;BME280;24936;46.328;11.026;2023-04-30T10:29:06;94206.19;;;26.67;34.13
39223;BME280;24936;46.328;11.026;2023-04-30T10:31:33;94198.78;;;25.13;34.80
39223;BME280;24936;46.328;11.026;2023-04-30T10:34:24;94197.28;;;24.93;35.12
39223;BME280;24936;46.328;11.026;2023-04-30T10:37:10;94191.22;;;24.86;34.86
39223;BME280;24936;46.328;11.026;2023-04-30T10:39:39;94194.78;;;25.27;34.53
39223;BME280;24936;46.328;11.026;2023-04-30T10:42:06;94192.22;;;25.61;34.91
39223;BME280;24936;46.328;11.026;2023-04-30T10:44:37;94183.56;;;25.59;31.03
39223;BME280;24936;46.328;11.026;2023-04-30T10:47:05;94188.72;;;24.49;35.75
39223;BME280;24936;46.328;11.026;2023-04-30T10:49:31;94187.88;;;22.84;35.94
39223;BME280;24936;46.328;11.026;2023-04-30T10:52:03;94184.50;;;22.44;38.17
39223;BME280;24936;46.328;11.026;2023-04-30T10:54:30;94176.13;;;23.95;38.63
39223;BME280;24936;46.328;11.026;2023-04-30T10:59:37;94185.81;;;22.35;40.26
39223;BME280;24936;46.328;11.026;2023-04-30T11:02:02;94190.66;;;21.17;41.42
39223;BME280;24936;46.328;11.026;2023-04-30T11:04:28;94187.41;;;21.08;44.06
39223;BME280;24936;46.328;11.026;2023-04-30T11:06:59;94184.16;;;22.34;39.96
39223;BME280;24936;46.328;11.026;2023-04-30T11:09:47;94187.03;;;21.82;38.10
39223;BME280;24936;46.328;11.026;2023-04-30T11:12:20;94179.69;;;20.66;43.34
39223;BME280;24936;46.328;11.026;2023-04-30T11:14:59;94180.97;;;20.30;42.92
39223;BME280;24936;46.328;11.026;2023-04-30T11:17:26;94179.72;;;20.53;44.43
39223;BME280;24936;46.328;11.026;2023-04-30T11:19:53;94180.31;;;20.82;43.14
39223;BME280;24936;46.328;11.026;2023-04-30T11:22:21;94170.34;;;22.12;41.79
39223;BME280;24936;46.328;11.026;2023-04-30T11:27:26;94161.50;;;23.79;38.37
39223;BME280;24936;46.328;11.026;2023-04-30T11:29:53;94162.16;;;23.32;36.29
39223;BME280;24936;46.328;11.026;2023-04-30T11:32:24;94165.66;;;24.05;35.79
39223;BME280;24936;46.328;11.026;2023-04-30T11:34:51;94159.63;;;24.57;36.27
39223;BME280;24936;46.328;11.026;2023-04-30T11:37:24;94166.97;;;23.72;35.09
39223;BME280;24936;46.328;11.026;2023-04-30T11:39:54;94166.31;;;22.03;36.86
39223;BME280;24936;46.328;11.026;2023-04-30T11:42:20;94159.59;;;23.18;37.91
39223;BME280;24936;46.328;11.026;2023-04-30T11:44:46;94157.09;;;23.05;36.29
39223;BME280;24936;46.328;11.026;2023-04-30T11:47:13;94164.72;;;22.20;40.22
39223;BME280;24936;46.328;11.026;2023-04-30T11:49:44;94168.94;;;21.77;37.52
39223;BME280;24936;46.328;11.026;2023-04-30T11:52:12;94164.38;;;21.46;38.91
39223;BME280;24936;46.328;11.026;2023-04-30T11:54:38;94159.41;;;23.20;37.95
39223;BME280;24936;46.328;11.026;2023-04-30T11:57:04;94158.56;;;22.82;36.13
39223;BME280;24936;46.328;11.026;2023-04-30T11:59:31;94153.91;;;22.52;37.04
39223;BME280;24936;46.328;11.026;2023-04-30T12:02:04;94149.53;;;21.82;38.41
39223;BME280;24936;46.328;11.026;2023-04-30T12:04:30;94159.59;;;22.44;37.40
39223;BME280;24936;46.328;11.026;2023-04-30T12:06:56;94145.84;;;22.34;39.26
39223;BME280;24936;46.328;11.026;2023-04-30T12:09:22;94150.19;;;21.06;39.04
39223;BME280;24936;46.328;11.026;2023-04-30T12:11:50;94151.59;;;20.03;40.02
39223;BME280;24936;46.328;11.026;2023-04-30T12:14:16;94155.66;;;19.72;42.67
39223;BME280;24936;46.328;11.026;2023-04-30T12:16:42;94155.88;;;19.64;42.31
39223;BME280;24936;46.328;11.026;2023-04-30T12:19:09;94153.97;;;19.37;42.13
39223;BME280;24936;46.328;11.026;2023-04-30T12:21:36;94148.44;;;19.32;43.94
39223;BME280;24936;46.328;11.026;2023-04-30T12:24:03;94142.41;;;19.10;42.70
39223;BME280;24936;46.328;11.026;2023-04-30T12:26:36;94138.09;;;19.09;43.41
39223;BME280;24936;46.328;11.026;2023-04-30T12:29:04;94135.31;;;19.58;47.59
39223;BME280;24936;46.328;11.026;2023-04-30T12:31:31;94136.19;;;19.85;42.47
39223;BME280;24936;46.328;11.026;2023-04-30T12:34:01;94125.94;;;19.89;43.33
39223;BME280;24936;46.328;11.026;2023-04-30T12:36:32;94133.28;;;20.27;43.75
39223;BME280;24936;46.328;11.026;2023-04-30T12:39:16;94132.69;;;21.04;42.25
39223;BME280;24936;46.328;11.026;2023-04-30T12:41:43;94127.94;;;21.45;38.72
39223;BME280;24936;46.328;11.026;2023-04-30T12:46:46;94124.75;;;21.29;37.57
39223;BME280;24936;46.328;11.026;2023-04-30T12:51:49;94113.00;;;21.69;38.69
39223;BME280;24936;46.328;11.026;2023-04-30T12:54:23;94104.63;;;21.84;37.23
39223;BME280;24936;46.328;11.026;2023-04-30T12:57:03;94118.03;;;21.45;38.61
39223;BME280;24936;46.328;11.026;2023-04-30T12:59:31;94097.78;;;21.63;38.82
39223;BME280;24936;46.328;11.026;2023-04-30T13:02:10;94099.81;;;22.18;37.93
39223;BME280;24936;46.328;11.026;2023-04-30T13:04:36;94096.69;;;22.40;37.43
39223;BME280;24936;46.328;11.026;2023-04-30T13:07:02;94103.00;;;22.08;37.00
39223;BME280;24936;46.328;11.026;2023-04-30T13:09:30;94102.78;;;20.75;39.20
39223;BME280;24936;46.328;11.026;2023-04-30T13:11:56;94097.28;;;20.50;39.56
39223;BME280;24936;46.328;11.026;2023-04-30T13:14:21;94095.91;;;20.13;40.73
39223;BME280;24936;46.328;11.026;2023-04-30T13:16:47;94090.00;;;19.98;42.60
39223;BME280;24936;46.328;11.026;2023-04-30T13:19:15;94089.56;;;19.88;41.91
39223;BME280;24936;46.328;11.026;2023-04-30T13:21:40;94093.06;;;19.95;43.28
39223;BME280;24936;46.328;11.026;2023-04-30T13:24:06;94089.75;;;19.52;41.46